Time;durP1;ratioP1;P1;durP2;ratioP2;P2;SDS_P1;SDS_P2;PMS_P1;PMS_P2;Temp;Humidity;BMP_temperature;BMP_pressure;BME280_temperature;BME280_humidity;BME280_pressure;Samples;Min_cycle;Max_cycle;Signal;HPM_P1;HPM_P2
2023/08/31 00:00:25;;;;;;;8.15;3.55;;;14.60;99.90;;;;;;4080553;29;20849;-65
2023/08/31 00:02:26;;;;;;;4.93;3.22;;;14.60;99.90;;;;;;4079531;29;20536;-66
2023/08/31 00:04:27;;;;;;;6.38;3.03;;;14.60;99.90;;;;;;4080516;29;20071;-66
2023/08/31 00:06:28;;;;;;;6.40;3.70;;;14.60;99.90;;;;;;4079786;29;20040;-61
2023/08/31 00:08:30;;;;;;;5.05;3.05;;;14.70;99.90;;;;;;4080531;29;20040;-66
2023/08/31 00:10:31;;;;;;;3.67;3.03;;;14.60;99.90;;;;;;4079548;29;20087;-65
2023/08/31 00:12:32;;;;;;;6.55;2.78;;;14.60;99.90;;;;;;4079540;29;20097;-61
2023/08/31 00:14:34;;;;;;;4.13;3.10;;;14.70;99.90;;;;;;4080005;29;20043;-62
2023/08/31 00:16:36;;;;;;;6.05;3.60;;;14.70;99.90;;;;;;4079680;29;20079;-68
2023/08/31 00:18:38;;;;;;;5.93;3.38;;;14.70;99.90;;;;;;4080363;29;20036;-62
2023/08/31 00:20:39;;;;;;;4.65;3.28;;;14.70;99.90;;;;;;4081045;29;20060;-64
2023/08/31 00:22:40;;;;;;;7.50;4.00;;;14.60;99.90;;;;;;4083655;29;20114;-61
2023/08/31 00:24:42;;;;;;;7.45;4.30;;;14.60;99.90;;;;;;4082637;29;20091;-62
2023/08/31 00:26:45;;;;;;;9.23;3.45;;;14.50;99.90;;;;;;4083468;29;20035;-60
2023/08/31 00:28:46;;;;;;;5.45;3.53;;;14.30;99.90;;;;;;4082494;29;20465;-63
2023/08/31 00:30:48;;;;;;;6.82;3.20;;;14.30;99.90;;;;;;4083413;29;20024;-66
2023/08/31 00:32:53;;;;;;;6.50;3.60;;;14.30;99.90;;;;;;4082548;29;20561;-64
2023/08/31 00:34:54;;;;;;;7.13;3.50;;;14.30;99.90;;;;;;4083497;29;20078;-64
2023/08/31 00:36:55;;;;;;;10.77;4.57;;;14.30;99.90;;;;;;4082071;29;20447;-62
2023/08/31 00:38:57;;;;;;;7.20;3.80;;;14.30;99.90;;;;;;4083520;29;20043;-62
2023/08/31 00:40:58;;;;;;;7.72;3.92;;;14.30;99.90;;;;;;4082196;29;20098;-64
2023/08/31 00:42:59;;;;;;;8.20;4.35;;;14.30;99.90;;;;;;4083159;29;20106;-64
2023/08/31 00:45:00;;;;;;;9.40;4.10;;;14.40;99.90;;;;;;4082276;29;20024;-62
2023/08/31 00:47:04;;;;;;;5.50;4.47;;;14.40;99.90;;;;;;4082497;29;20114;-67
2023/08/31 00:49:05;;;;;;;6.30;3.38;;;14.40;99.90;;;;;;4082645;29;20135;-62
2023/08/31 00:51:07;;;;;;;6.95;4.63;;;14.40;99.90;;;;;;4082549;29;20043;-63
2023/08/31 00:53:08;;;;;;;9.35;3.97;;;14.40;99.90;;;;;;4082449;29;20059;-63
2023/08/31 00:55:10;;;;;;;4.53;3.40;;;14.50;99.90;;;;;;4082172;29;20440;-62
2023/08/31 00:57:12;;;;;;;5.22;3.35;;;14.40;99.90;;;;;;4082872;29;20420;-61
2023/08/31 00:59:14;;;;;;;9.43;3.80;;;14.40;99.90;;;;;;4080425;29;20044;-64
2023/08/31 01:01:42;;;;;;;8.60;2.88;;;14.40;99.90;;;;;;4083149;29;20023;-63
2023/08/31 01:04:01;;;;;;;8.85;3.40;;;14.40;99.90;;;;;;4081908;29;20437;-61
2023/08/31 01:06:15;;;;;;;8.55;3.42;;;14.40;99.90;;;;;;4082652;29;20035;-63
2023/08/31 01:08:33;;;;;;;8.00;6.70;;;14.40;99.90;;;;;;4082184;29;20020;-62
2023/08/31 01:10:46;;;;;;;13.52;9.27;;;14.30;99.90;;;;;;4082549;29;20111;-67
2023/08/31 01:12:53;;;;;;;14.32;10.75;;;14.30;99.90;;;;;;4080195;29;20099;-67
2023/08/31 01:14:59;;;;;;;10.15;7.82;;;14.20;99.90;;;;;;4082552;29;20083;-62
2023/08/31 01:17:03;;;;;;;11.80;7.22;;;14.20;99.90;;;;;;4081981;29;20087;-62
2023/08/31 01:19:25;;;;;;;8.07;6.30;;;14.20;99.90;;;;;;4080598;29;20039;-65
2023/08/31 01:21:35;;;;;;;9.15;6.63;;;14.20;99.90;;;;;;4082003;29;20078;-62
2023/08/31 01:23:55;;;;;;;9.85;6.05;;;14.20;99.90;;;;;;4082018;29;20445;-64
2023/08/31 01:25:58;;;;;;;6.45;5.65;;;14.30;99.90;;;;;;4082090;29;20110;-63
2023/08/31 01:28:01;;;;;;;9.73;5.75;;;14.30;99.90;;;;;;4082276;29;20086;-62
2023/08/31 01:30:04;;;;;;;5.40;4.10;;;14.30;99.90;;;;;;4081221;29;20036;-65
2023/08/31 01:32:08;;;;;;;7.35;4.20;;;14.30;99.90;;;;;;4082014;29;20075;-65
2023/08/31 01:34:09;;;;;;;7.78;4.28;;;14.30;99.90;;;;;;4081476;29;20039;-61
2023/08/31 01:36:23;;;;;;;5.22;3.30;;;14.20;99.90;;;;;;4082430;29;20492;-65
2023/08/31 01:38:28;;;;;;;7.18;3.95;;;14.00;99.90;;;;;;4081485;29;20032;-63
2023/08/31 01:40:50;;;;;;;5.78;3.55;;;14.00;99.90;;;;;;4082352;29;20044;-65
2023/08/31 01:42:51;;;;;;;6.30;3.50;;;13.80;99.90;;;;;;4081058;29;20658;-62
2023/08/31 01:44:55;;;;;;;5.28;3.75;;;13.80;99.90;;;;;;4082484;29;20047;-66
2023/08/31 01:47:06;;;;;;;8.40;4.93;;;13.70;99.90;;;;;;4080757;29;20059;-62
2023/08/31 01:49:07;;;;;;;;;;;13.50;99.90;;;;;;4081235;29;20072;-62
2023/08/31 01:51:09;;;;;;;30.77;5.55;;;13.50;99.90;;;;;;4081208;29;19969;-61
2023/08/31 01:53:10;;;;;;;53.58;6.78;;;13.40;99.90;;;;;;4081956;29;20063;-61
2023/08/31 01:55:15;;;;;;;66.22;7.28;;;13.40;99.90;;;;;;4081202;29;20376;-65
2023/08/31 01:57:17;;;;;;;120.93;8.85;;;13.40;99.90;;;;;;4082420;29;20512;-65
2023/08/31 01:59:18;;;;;;;92.38;7.82;;;13.30;99.90;;;;;;4081152;29;20039;-65
2023/08/31 02:01:19;;;;;;;249.52;12.02;;;13.30;99.90;;;;;;4082216;29;20079;-65
2023/08/31 02:03:20;;;;;;;131.27;9.18;;;13.20;99.90;;;;;;4080939;29;20083;-66
2023/08/31 02:05:21;;;;;;;79.28;8.45;;;13.10;99.90;;;;;;4081701;29;20058;-64
2023/08/31 02:07:22;;;;;;;92.97;9.45;;;13.20;99.90;;;;;;4080817;29;20452;-65
2023/08/31 02:09:23;;;;;;;97.10;9.00;;;13.20;99.90;;;;;;4081598;29;20087;-65
2023/08/31 02:11:25;;;;;;;60.53;8.85;;;13.20;99.90;;;;;;4080552;29;20083;-63
2023/08/31 02:13:27;;;;;;;71.47;8.60;;;13.20;99.90;;;;;;4081353;29;20492;-65
2023/08/31 02:15:28;;;;;;;58.13;7.32;;;13.20;99.90;;;;;;4081398;29;20095;-65
2023/08/31 02:17:29;;;;;;;44.05;7.05;;;13.20;99.90;;;;;;4080998;29;20039;-64
2023/08/31 02:19:30;;;;;;;30.73;7.03;;;13.20;99.90;;;;;;4081549;29;20039;-65
2023/08/31 02:21:31;;;;;;;32.50;7.90;;;13.20;99.90;;;;;;4080283;29;20075;-59
2023/08/31 02:23:33;;;;;;;29.85;7.25;;;13.20;99.90;;;;;;4082103;29;20032;-64
2023/08/31 02:25:34;;;;;;;26.85;8.07;;;13.20;99.90;;;;;;4080670;29;20169;-64
2023/08/31 02:27:35;;;;;;;54.90;9.23;;;13.20;99.90;;;;;;4081817;29;20634;-64
2023/08/31 02:29:36;;;;;;;34.60;8.93;;;13.30;99.90;;;;;;4078972;29;20052;-66
2023/08/31 02:31:38;;;;;;;56.47;8.73;;;13.30;99.90;;;;;;4081545;29;20428;-67
2023/08/31 02:33:39;;;;;;;55.47;10.07;;;13.30;99.90;;;;;;4080665;29;20182;-65
2023/08/31 02:35:40;;;;;;;45.80;9.53;;;13.30;99.90;;;;;;4081502;29;20373;-65
2023/08/31 02:37:41;;;;;;;43.47;9.47;;;13.30;99.90;;;;;;4080075;29;20098;-62
2023/08/31 02:39:43;;;;;;;38.60;10.63;;;13.30;99.90;;;;;;4081234;29;20079;-64
2023/08/31 02:41:44;;;;;;;43.38;9.73;;;13.40;99.90;;;;;;4080230;29;20048;-65
2023/08/31 02:43:45;;;;;;;57.17;11.33;;;13.40;99.90;;;;;;4080936;29;20508;-65
2023/08/31 02:45:46;;;;;;;83.37;11.47;;;13.40;99.90;;;;;;4080483;29;20032;-66
2023/08/31 02:47:49;;;;;;;27.60;10.38;;;13.40;99.90;;;;;;4080301;29;20035;-66
2023/08/31 02:49:50;;;;;;;63.00;11.90;;;13.50;99.90;;;;;;4081417;29;20063;-65
2023/08/31 02:51:51;;;;;;;35.50;10.37;;;13.50;99.90;;;;;;4079844;29;20051;-67
2023/08/31 02:53:53;;;;;;;76.80;11.18;;;13.40;99.90;;;;;;4080764;29;21033;-65
2023/08/31 02:55:54;;;;;;;48.58;10.13;;;13.40;99.90;;;;;;4080160;29;20043;-66
2023/08/31 02:57:55;;;;;;;28.73;9.43;;;13.50;99.90;;;;;;4080905;29;20040;-65
2023/08/31 02:59:56;;;;;;;26.67;10.53;;;13.50;99.90;;;;;;4080198;29;20032;-64
2023/08/31 03:01:57;;;;;;;44.10;10.18;;;13.60;99.90;;;;;;4081149;29;20386;-64
2023/08/31 03:03:58;;;;;;;65.22;10.65;;;13.60;99.90;;;;;;4079640;29;20095;-65
2023/08/31 03:06:00;;;;;;;46.78;8.57;;;13.60;99.90;;;;;;4081148;29;20028;-66
2023/08/31 03:08:01;;;;;;;32.80;8.98;;;13.60;99.90;;;;;;4080165;29;20118;-65
2023/08/31 03:10:02;;;;;;;29.77;8.60;;;13.50;99.90;;;;;;4079321;29;20048;-67
2023/08/31 03:12:03;;;;;;;72.22;8.85;;;13.50;99.90;;;;;;4080073;29;20476;-63
2023/08/31 03:14:05;;;;;;;84.25;9.77;;;13.50;99.90;;;;;;4080634;29;20134;-65
2023/08/31 03:16:07;;;;;;;20.10;8.63;;;13.50;99.90;;;;;;4079820;29;20087;-64
2023/08/31 03:18:08;;;;;;;53.50;8.07;;;13.50;99.90;;;;;;4079672;29;20492;-68
2023/08/31 03:20:10;;;;;;;17.77;7.82;;;13.50;99.90;;;;;;4081040;29;20031;-66
2023/08/31 03:22:11;;;;;;;16.65;8.52;;;13.60;99.90;;;;;;4079835;29;20361;-66
2023/08/31 03:24:12;;;;;;;17.23;8.02;;;13.60;99.90;;;;;;4080923;29;20035;-67
2023/08/31 03:26:13;;;;;;;42.63;8.13;;;13.70;99.90;;;;;;4079368;29;20467;-65
2023/08/31 03:28:14;;;;;;;24.67;8.85;;;13.70;99.90;;;;;;4080837;29;20024;-63
2023/08/31 03:30:15;;;;;;;26.83;8.32;;;13.70;99.90;;;;;;4079237;29;20036;-66
2023/08/31 03:32:16;;;;;;;22.95;9.00;;;13.70;99.90;;;;;;4080724;29;20039;-63
2023/08/31 03:34:18;;;;;;;19.55;8.88;;;13.70;99.90;;;;;;4079775;29;20079;-67
2023/08/31 03:36:19;;;;;;;23.55;10.35;;;13.70;99.90;;;;;;4080880;29;20043;-67
2023/08/31 03:38:20;;;;;;;21.85;9.38;;;13.70;99.90;;;;;;4079704;29;20492;-67
2023/08/31 03:40:22;;;;;;;23.20;10.25;;;13.70;99.90;;;;;;4080306;29;20055;-64
2023/08/31 03:42:23;;;;;;;16.83;9.93;;;13.70;99.90;;;;;;4079367;29;20565;-64
2023/08/31 03:44:25;;;;;;;23.23;12.07;;;13.70;99.90;;;;;;4080219;29;20040;-65
2023/08/31 03:46:26;;;;;;;20.13;10.05;;;13.60;99.90;;;;;;4079318;29;20104;-65
2023/08/31 03:48:28;;;;;;;26.70;20.25;;;13.70;99.90;;;;;;4079629;29;20039;-66
2023/08/31 03:50:29;;;;;;;15.13;8.70;;;13.70;99.90;;;;;;4080347;29;20209;-66
2023/08/31 03:52:30;;;;;;;22.70;18.60;;;13.70;99.90;;;;;;4079379;29;20460;-65
2023/08/31 03:54:31;;;;;;;20.05;17.42;;;13.80;99.90;;;;;;4079679;29;20452;-65
2023/08/31 03:56:32;;;;;;;12.43;8.20;;;13.80;99.90;;;;;;4079309;29;20047;-67
2023/08/31 03:58:33;;;;;;;10.00;5.60;;;13.80;99.90;;;;;;4079923;29;20099;-65
2023/08/31 04:00:35;;;;;;;9.93;5.22;;;13.80;99.90;;;;;;4079073;29;20453;-62
2023/08/31 04:02:37;;;;;;;13.63;6.82;;;13.80;99.90;;;;;;4080472;29;20032;-65
2023/08/31 04:04:38;;;;;;;11.40;5.13;;;13.80;99.90;;;;;;4079242;29;20055;-65
2023/08/31 04:06:39;;;;;;;14.52;6.53;;;13.90;99.90;;;;;;4078811;29;20590;-65
2023/08/31 04:08:41;;;;;;;13.75;7.45;;;13.90;99.90;;;;;;4078802;29;20111;-65
2023/08/31 04:10:42;;;;;;;15.27;7.50;;;13.90;99.90;;;;;;4078799;29;20192;-66
2023/08/31 04:12:43;;;;;;;12.63;7.95;;;13.90;99.90;;;;;;4078181;29;20099;-63
2023/08/31 04:14:44;;;;;;;14.40;8.63;;;14.00;99.90;;;;;;4080090;29;20083;-65
2023/08/31 04:16:49;;;;;;;19.02;9.23;;;14.00;99.90;;;;;;4079596;29;20420;-66
2023/08/31 04:18:51;;;;;;;17.73;8.55;;;14.00;99.90;;;;;;4079570;29;20099;-66
2023/08/31 04:20:53;;;;;;;15.95;9.77;;;13.90;99.90;;;;;;4080127;29;20032;-66
2023/08/31 04:22:54;;;;;;;25.45;12.82;;;14.00;99.90;;;;;;4079189;29;20075;-65
2023/08/31 04:24:56;;;;;;;28.08;12.32;;;14.00;99.90;;;;;;4080296;29;20054;-66
2023/08/31 04:26:57;;;;;;;24.75;11.80;;;13.90;99.90;;;;;;4078998;29;20445;-68
2023/08/31 04:28:58;;;;;;;20.55;11.45;;;14.00;99.90;;;;;;4079961;29;20048;-67
2023/08/31 04:30:59;;;;;;;25.58;12.80;;;13.90;99.90;;;;;;4078919;29;20122;-68
2023/08/31 04:33:00;;;;;;;23.42;12.35;;;14.00;99.90;;;;;;4079793;29;20052;-67
2023/08/31 04:35:05;;;;;;;24.23;13.20;;;14.10;99.90;;;;;;4078794;29;20108;-66
2023/08/31 04:37:07;;;;;;;30.45;15.80;;;14.00;99.90;;;;;;4080108;29;20110;-67
2023/08/31 04:39:08;;;;;;;21.10;13.57;;;14.00;99.90;;;;;;4078965;29;20032;-66
2023/08/31 04:41:09;;;;;;;22.25;12.43;;;14.10;99.90;;;;;;4079766;29;20043;-69
2023/08/31 04:43:10;;;;;;;24.60;13.63;;;14.20;99.90;;;;;;4078569;29;20118;-67
2023/08/31 04:45:12;;;;;;;33.25;21.35;;;14.30;99.90;;;;;;4079392;29;20039;-69
2023/08/31 04:47:13;;;;;;;27.40;16.08;;;14.40;99.90;;;;;;4079266;29;20587;-67
2023/08/31 04:49:14;;;;;;;22.90;13.65;;;14.50;99.90;;;;;;4079062;29;20102;-66
2023/08/31 04:51:34;;;;;;;23.38;11.98;;;14.50;99.90;;;;;;4079705;29;20039;-67
2023/08/31 04:53:35;;;;;;;18.67;10.80;;;14.50;99.90;;;;;;4079011;29;20095;-68
2023/08/31 04:55:37;;;;;;;17.55;11.05;;;14.60;99.90;;;;;;4078911;29;20086;-67
2023/08/31 04:57:38;;;;;;;17.02;9.93;;;14.70;99.90;;;;;;4079106;29;20028;-68
2023/08/31 04:59:39;;;;;;;16.17;9.13;;;14.80;99.90;;;;;;4079842;29;20087;-65
2023/08/31 05:01:41;;;;;;;16.48;9.25;;;14.90;99.90;;;;;;4078771;29;20115;-66
2023/08/31 05:03:42;;;;;;;19.10;8.85;;;14.90;99.90;;;;;;4080003;29;20039;-64
2023/08/31 05:05:43;;;;;;;9.13;5.57;;;15.00;99.90;;;;;;4079453;29;20035;-63
2023/08/31 05:07:45;;;;;;;7.18;5.20;;;14.90;99.90;;;;;;4082581;29;20027;-65
2023/08/31 05:09:46;;;;;;;12.25;6.22;;;14.80;99.90;;;;;;4081436;29;20035;-63
2023/08/31 05:11:47;;;;;;;8.52;5.18;;;14.80;99.90;;;;;;4082490;29;20040;-66
2023/08/31 05:13:48;;;;;;;6.90;4.57;;;14.80;99.90;;;;;;4081218;29;20051;-64
2023/08/31 05:15:49;;;;;;;12.75;5.03;;;14.80;99.90;;;;;;4082299;29;20074;-63
2023/08/31 05:17:50;;;;;;;11.20;4.65;;;14.80;99.90;;;;;;4081337;29;20376;-67
2023/08/31 05:19:51;;;;;;;10.77;4.90;;;14.90;99.90;;;;;;4080009;29;20204;-64
2023/08/31 05:21:53;;;;;;;12.27;4.82;;;14.90;99.90;;;;;;4081903;29;20079;-65
2023/08/31 05:23:54;;;;;;;7.95;4.88;;;15.00;99.90;;;;;;4081793;29;20040;-67
2023/08/31 05:25:56;;;;;;;8.70;5.43;;;15.00;99.90;;;;;;4081692;29;20087;-67
2023/08/31 05:27:57;;;;;;;10.55;5.57;;;15.20;99.90;;;;;;4081434;29;20039;-66
2023/08/31 05:29:58;;;;;;;9.07;5.00;;;15.30;99.90;;;;;;4082381;29;20090;-67
2023/08/31 05:31:59;;;;;;;6.43;5.30;;;15.40;99.90;;;;;;4081336;29;20071;-62
2023/08/31 05:34:01;;;;;;;10.48;5.35;;;15.60;99.90;;;;;;4081934;29;20043;-61
2023/08/31 05:36:03;;;;;;;8.07;5.18;;;15.80;99.90;;;;;;4081163;29;20044;-64
2023/08/31 05:38:04;;;;;;;10.95;5.38;;;16.10;99.90;;;;;;4082140;29;20087;-66
2023/08/31 05:40:10;;;;;;;9.95;5.30;;;16.40;99.90;;;;;;4081099;29;20445;-68
2023/08/31 05:42:12;;;;;;;9.38;4.85;;;16.90;99.90;;;;;;4082308;29;20067;-66
2023/08/31 05:44:13;;;;;;;9.05;4.68;;;17.20;99.90;;;;;;4080942;29;20079;-62
2023/08/31 05:46:14;;;;;;;8.23;4.88;;;17.40;99.90;;;;;;4081393;29;20044;-66
2023/08/31 05:48:15;;;;;;;7.40;5.25;;;17.80;99.90;;;;;;4080921;29;20445;-62
2023/08/31 05:50:17;;;;;;;7.75;3.53;;;17.90;99.90;;;;;;4082042;29;20040;-62
2023/08/31 05:52:18;;;;;;;4.85;3.70;;;18.10;99.90;;;;;;4080866;29;20040;-64
2023/08/31 05:54:19;;;;;;;4.82;3.45;;;18.10;99.90;;;;;;4081314;29;20047;-64
2023/08/31 05:56:20;;;;;;;3.50;2.85;;;18.30;99.90;;;;;;4081518;29;20082;-65
2023/08/31 05:58:22;;;;;;;5.13;2.60;;;18.50;99.90;;;;;;4081396;29;20123;-68
2023/08/31 06:00:24;;;;;;;9.75;2.85;;;18.80;99.90;;;;;;4081525;29;20043;-67
2023/08/31 06:02:25;;;;;;;2.85;2.00;;;19.40;99.90;;;;;;4080680;29;20040;-63
2023/08/31 06:04:26;;;;;;;3.35;2.05;;;19.90;99.90;;;;;;4081568;29;20377;-65
2023/08/31 06:06:27;;;;;;;3.92;3.28;;;20.60;99.90;;;;;;4080333;29;20040;-67
2023/08/31 06:08:30;;;;;;;4.82;2.40;;;20.90;99.90;;;;;;4081804;29;20039;-66
2023/08/31 06:10:31;;;;;;;7.72;2.40;;;21.30;99.90;;;;;;4078803;29;20469;-68
2023/08/31 06:12:32;;;;;;;4.88;2.88;;;21.80;99.90;;;;;;4081220;29;20091;-66
2023/08/31 06:14:33;;;;;;;3.42;2.10;;;22.10;99.90;;;;;;4080640;29;20389;-68
2023/08/31 06:16:34;;;;;;;6.65;2.85;;;22.40;99.90;;;;;;4081155;29;20083;-63
2023/08/31 06:18:35;;;;;;;8.38;2.40;;;22.30;99.90;;;;;;4080609;29;20040;-67
2023/08/31 06:20:36;;;;;;;5.47;1.70;;;22.70;99.90;;;;;;4081575;29;20035;-69
2023/08/31 06:22:38;;;;;;;4.68;2.47;;;23.30;99.90;;;;;;4080509;29;20107;-66
2023/08/31 06:24:39;;;;;;;2.53;2.10;;;23.40;99.90;;;;;;4081158;29;20098;-65
2023/08/31 06:26:41;;;;;;;3.03;1.70;;;23.50;99.90;;;;;;4080967;29;20040;-68
2023/08/31 06:28:42;;;;;;;2.75;1.70;;;23.80;99.90;;;;;;4080776;29;20468;-65
2023/08/31 06:30:49;;;;;;;4.90;1.65;;;24.00;99.90;;;;;;4080905;29;20098;-67
2023/08/31 06:32:50;;;;;;;4.53;2.33;;;24.10;99.90;;;;;;4078856;29;20059;-67
2023/08/31 06:34:51;;;;;;;2.88;1.50;;;24.40;99.90;;;;;;4080995;29;20059;-66
2023/08/31 06:36:53;;;;;;;2.28;1.50;;;24.40;99.90;;;;;;4080306;29;20035;-65
2023/08/31 06:38:54;;;;;;;5.35;2.05;;;24.70;99.90;;;;;;4081211;29;20040;-67
2023/08/31 06:40:58;;;;;;;2.65;1.42;;;24.70;99.90;;;;;;4080289;29;20043;-67
2023/08/31 06:42:59;;;;;;;4.97;2.83;;;24.70;99.90;;;;;;4081326;29;20178;-66
2023/08/31 06:45:02;;;;;;;5.68;3.15;;;24.80;99.90;;;;;;4080287;29;20044;-67
2023/08/31 06:47:03;;;;;;;6.85;5.60;;;24.80;99.90;;;;;;4081123;29;20043;-67
2023/08/31 06:49:05;;;;;;;4.57;1.83;;;24.80;99.90;;;;;;4080073;29;20032;-67
2023/08/31 06:51:06;;;;;;;9.63;2.20;;;24.80;99.90;;;;;;4081072;29;20044;-67
2023/08/31 06:53:07;;;;;;;4.47;2.10;;;24.80;99.90;;;;;;4079956;29;20139;-67
2023/08/31 06:55:10;;;;;;;4.10;2.05;;;24.70;99.90;;;;;;4080811;29;20027;-66
2023/08/31 06:57:11;;;;;;;3.38;1.95;;;24.40;99.90;;;;;;4080044;29;20590;-66
2023/08/31 06:59:12;;;;;;;4.32;2.60;;;24.40;99.90;;;;;;4080167;29;20040;-63
2023/08/31 07:01:14;;;;;;;3.10;2.28;;;24.00;99.90;;;;;;4080226;29;20036;-68
2023/08/31 07:03:15;;;;;;;6.40;2.80;;;23.80;99.90;;;;;;4079831;29;20282;-67
2023/08/31 07:05:16;;;;;;;4.15;2.45;;;23.60;99.90;;;;;;4080361;29;20449;-67
2023/08/31 07:07:18;;;;;;;3.97;2.70;;;23.50;99.90;;;;;;4079291;29;20115;-62
2023/08/31 07:09:19;;;;;;;11.55;3.28;;;23.30;99.90;;;;;;4080912;29;20357;-67
2023/08/31 07:11:20;;;;;;;5.65;3.13;;;23.20;99.90;;;;;;4079382;29;20547;-66
2023/08/31 07:13:21;;;;;;;3.63;2.55;;;23.00;99.90;;;;;;4080446;29;20134;-68
2023/08/31 07:15:22;;;;;;;4.63;3.65;;;23.10;99.90;;;;;;4079638;29;20091;-68
2023/08/31 07:17:23;;;;;;;9.18;3.38;;;23.40;99.90;;;;;;4080900;29;20108;-66
2023/08/31 07:19:24;;;;;;;10.80;3.50;;;23.10;99.90;;;;;;4079055;29;20119;-66
2023/08/31 07:21:26;;;;;;;8.60;3.45;;;23.10;99.90;;;;;;4080383;29;20144;-67
2023/08/31 07:23:27;;;;;;;9.48;3.50;;;22.60;99.90;;;;;;4079119;29;20364;-66
2023/08/31 07:25:29;;;;;;;3.20;2.83;;;22.40;99.90;;;;;;4080268;29;20110;-66
2023/08/31 07:27:30;;;;;;;8.57;3.38;;;22.10;99.90;;;;;;4079891;29;20126;-63
2023/08/31 07:29:31;;;;;;;8.43;3.83;;;22.00;99.90;;;;;;4079020;29;20043;-68
2023/08/31 07:31:32;;;;;;;8.65;4.10;;;21.70;99.90;;;;;;4079278;29;20044;-64
2023/08/31 07:33:35;;;;;;;9.13;4.18;;;21.30;99.90;;;;;;4079354;29;20079;-68
2023/08/31 07:35:36;;;;;;;7.35;3.97;;;20.90;99.90;;;;;;4080508;29;20040;-65
2023/08/31 07:37:37;;;;;;;5.07;4.30;;;20.40;99.90;;;;;;4079280;29;20036;-62
2023/08/31 07:39:38;;;;;;;7.03;4.63;;;20.10;99.90;;;;;;4080096;29;20043;-67
2023/08/31 07:41:39;;;;;;;10.23;6.47;;;19.90;99.90;;;;;;4078707;29;20047;-63
2023/08/31 07:43:40;;;;;;;10.20;7.32;;;19.70;99.90;;;;;;4079941;29;20444;-67
2023/08/31 07:45:41;;;;;;;15.93;7.22;;;19.50;99.90;;;;;;4078740;29;20114;-67
2023/08/31 07:47:43;;;;;;;12.43;6.10;;;19.50;99.90;;;;;;4080390;29;20092;-66
2023/08/31 07:49:44;;;;;;;8.15;5.47;;;19.60;99.90;;;;;;4079169;29;20119;-65
2023/08/31 07:51:45;;;;;;;11.52;6.20;;;19.60;99.90;;;;;;4080067;29;20448;-66
2023/08/31 07:53:46;;;;;;;12.20;7.55;;;19.50;99.90;;;;;;4079114;29;20044;-67
2023/08/31 07:55:52;;;;;;;11.18;7.15;;;19.30;99.90;;;;;;4079572;29;20099;-63
2023/08/31 07:57:54;;;;;;;9.98;6.35;;;19.30;99.90;;;;;;4078813;29;20075;-67
2023/08/31 07:59:55;;;;;;;10.85;7.80;;;19.20;99.90;;;;;;4079028;29;20182;-66
2023/08/31 08:01:56;;;;;;;10.07;7.40;;;19.20;99.90;;;;;;4079356;29;20099;-66
2023/08/31 08:03:57;;;;;;;12.80;7.85;;;19.30;99.90;;;;;;4079006;29;20028;-67
2023/08/31 08:05:58;;;;;;;10.40;6.50;;;19.20;99.90;;;;;;4079979;29;20031;-63
2023/08/31 08:07:59;;;;;;;9.85;7.40;;;19.30;99.90;;;;;;4078883;29;20559;-68
2023/08/31 08:10:00;;;;;;;9.30;6.43;;;19.40;99.90;;;;;;4080182;29;20020;-68
2023/08/31 08:12:02;;;;;;;11.85;7.10;;;19.40;99.90;;;;;;4078996;29;20075;-66
2023/08/31 08:14:03;;;;;;;8.43;6.75;;;19.50;99.90;;;;;;4080243;29;20052;-66
2023/08/31 08:16:04;;;;;;;9.13;7.03;;;19.60;99.90;;;;;;4078897;29;20040;-64
2023/08/31 08:18:05;;;;;;;10.43;6.88;;;19.50;99.90;;;;;;4079969;29;20452;-66
2023/08/31 08:20:07;;;;;;;8.02;6.68;;;19.40;99.90;;;;;;4078752;29;20031;-65
2023/08/31 08:22:09;;;;;;;10.07;6.03;;;19.50;99.90;;;;;;4079921;29;20139;-66
2023/08/31 08:24:10;;;;;;;7.43;6.18;;;19.70;99.90;;;;;;4078886;29;20095;-68
2023/08/31 08:26:11;;;;;;;6.95;6.00;;;19.70;99.90;;;;;;4079420;29;20083;-67
2023/08/31 08:28:12;;;;;;;7.38;6.10;;;19.70;99.90;;;;;;4079145;29;20110;-67
2023/08/31 08:30:15;;;;;;;8.38;5.78;;;19.70;99.90;;;;;;4078895;29;20051;-67
2023/08/31 08:32:16;;;;;;;7.10;5.75;;;19.80;99.90;;;;;;4079380;29;20044;-65
2023/08/31 08:34:17;;;;;;;14.13;6.03;;;19.70;99.90;;;;;;4078594;29;20051;-67
2023/08/31 08:36:18;;;;;;;7.15;5.88;;;19.70;99.90;;;;;;4079505;29;20040;-66
2023/08/31 08:38:20;;;;;;;8.20;6.40;;;19.70;99.90;;;;;;4078374;29;20048;-67
2023/08/31 08:40:21;;;;;;;10.43;6.28;;;19.80;99.90;;;;;;4081643;29;20032;-66
2023/08/31 08:42:25;;;;;;;7.07;5.80;;;19.80;99.90;;;;;;4081325;29;20054;-67
2023/08/31 08:44:31;;;;;;;12.15;7.30;;;19.90;99.90;;;;;;4082799;29;20502;-65
2023/08/31 08:46:33;;;;;;;9.45;6.65;;;19.90;99.90;;;;;;4081349;29;20457;-66
2023/08/31 08:48:36;;;;;;;8.13;6.63;;;19.70;99.90;;;;;;4082798;29;20488;-64
2023/08/31 08:50:37;;;;;;;7.30;6.25;;;19.70;99.90;;;;;;4081518;29;20090;-68
2023/08/31 08:52:40;;;;;;;8.32;6.38;;;19.60;99.90;;;;;;4081067;29;20108;-64
2023/08/31 08:54:41;;;;;;;11.30;6.40;;;19.60;99.90;;;;;;4081698;29;20186;-69
2023/08/31 08:56:42;;;;;;;8.02;5.82;;;19.70;99.90;;;;;;4082691;29;20024;-68
2023/08/31 08:58:43;;;;;;;8.02;5.82;;;19.70;99.90;;;;;;4081719;29;20031;-67
2023/08/31 09:00:46;;;;;;;7.45;6.00;;;19.70;99.90;;;;;;4081681;29;20095;-66
2023/08/31 09:02:47;;;;;;;10.32;6.30;;;19.80;99.90;;;;;;4081830;29;20110;-67
2023/08/31 09:04:51;;;;;;;7.32;5.50;;;20.10;99.90;;;;;;4081720;29;20035;-67
2023/08/31 09:06:52;;;;;;;7.55;4.80;;;20.40;99.90;;;;;;4082355;29;20020;-67
2023/08/31 09:08:56;;;;;;;5.78;4.65;;;20.40;99.90;;;;;;4081395;29;20039;-67
2023/08/31 09:10:58;;;;;;;6.45;4.85;;;20.40;99.90;;;;;;4081982;29;20047;-63
2023/08/31 09:13:00;;;;;;;5.35;4.20;;;20.60;99.90;;;;;;4081401;29;20107;-66
2023/08/31 09:15:04;;;;;;;5.38;4.60;;;20.80;99.90;;;;;;4081111;29;20051;-65
2023/08/31 09:17:06;;;;;;;9.15;4.72;;;20.70;99.90;;;;;;4081303;29;20437;-68
2023/08/31 09:19:25;;;;;;;6.75;4.20;;;20.60;99.90;;;;;;4082249;29;20048;-68
2023/08/31 09:21:37;;;;;;;4.95;3.85;;;20.50;99.90;;;;;;4081633;29;20035;-66
2023/08/31 09:23:38;;;;;;;5.38;3.92;;;20.60;99.90;;;;;;4082758;29;20027;-63
2023/08/31 09:25:43;;;;;;;4.00;3.58;;;20.80;99.90;;;;;;4081365;29;20035;-65
2023/08/31 09:27:44;;;;;;;4.93;3.45;;;20.90;99.90;;;;;;4082278;29;20477;-69
2023/08/31 09:29:46;;;;;;;3.92;3.50;;;21.00;99.90;;;;;;4081365;29;20036;-67
2023/08/31 09:31:48;;;;;;;3.75;3.42;;;21.00;99.90;;;;;;4082480;29;20032;-68
2023/08/31 09:33:52;;;;;;;5.20;3.60;;;20.90;99.90;;;;;;4081210;29;20376;-68
2023/08/31 09:35:59;;;;;;;7.07;3.90;;;21.10;99.90;;;;;;4081979;29;20100;-68
2023/08/31 09:38:02;;;;;;;3.72;3.42;;;21.10;99.90;;;;;;4081351;29;20444;-67
2023/08/31 09:40:04;;;;;;;4.90;3.00;;;21.10;99.90;;;;;;4081966;29;20091;-67
2023/08/31 09:42:05;;;;;;;5.30;3.40;;;21.10;99.90;;;;;;4081353;29;20563;-66
2023/08/31 09:44:17;;;;;;;3.25;2.72;;;21.30;99.90;;;;;;4081817;29;20045;-69
2023/08/31 09:46:19;;;;;;;4.25;2.60;;;21.40;99.90;;;;;;4080608;29;20051;-69
2023/08/31 09:48:23;;;;;;;3.53;3.22;;;21.40;99.90;;;;;;4081462;29;20052;-68
2023/08/31 09:50:25;;;;;;;4.95;3.00;;;21.40;99.90;;;;;;4081391;29;20016;-67
2023/08/31 09:52:26;;;;;;;4.68;3.45;;;21.40;99.90;;;;;;4080291;29;20039;-67
2023/08/31 09:54:28;;;;;;;4.55;3.10;;;21.40;99.90;;;;;;4081580;29;20040;-68
2023/08/31 09:56:32;;;;;;;3.58;3.28;;;21.60;99.90;;;;;;4080843;29;20071;-67
2023/08/31 09:58:33;;;;;;;3.47;2.92;;;21.60;99.90;;;;;;4080889;29;20048;-62
2023/08/31 10:00:36;;;;;;;4.85;3.47;;;21.60;99.90;;;;;;4080668;29;20389;-66
2023/08/31 10:02:37;;;;;;;4.18;2.75;;;21.50;99.90;;;;;;4081522;29;20036;-66
2023/08/31 10:04:39;;;;;;;4.07;2.85;;;21.60;99.90;;;;;;4079946;29;20031;-68
2023/08/31 10:06:41;;;;;;;4.68;2.88;;;21.70;99.90;;;;;;4081588;29;20110;-66
2023/08/31 10:08:43;;;;;;;4.63;2.70;;;21.70;99.90;;;;;;4080608;29;20302;-63
2023/08/31 10:10:44;;;;;;;4.43;2.60;;;21.70;99.90;;;;;;4081641;29;20043;-65
2023/08/31 10:12:47;;;;;;;3.00;2.58;;;21.80;99.90;;;;;;4080210;29;20039;-67
2023/08/31 10:14:51;;;;;;;5.35;2.75;;;21.70;99.90;;;;;;4081347;29;20369;-66
2023/08/31 10:16:54;;;;;;;4.07;2.80;;;21.60;99.90;;;;;;4080209;29;20091;-64
2023/08/31 10:18:56;;;;;;;4.93;2.72;;;21.80;99.90;;;;;;4081299;29;20535;-66
2023/08/31 10:20:57;;;;;;;4.97;3.30;;;21.90;99.90;;;;;;4080765;29;20040;-62
2023/08/31 10:22:59;;;;;;;4.25;2.72;;;21.90;99.90;;;;;;4080922;29;20023;-64
2023/08/31 10:25:08;;;;;;;2.75;2.33;;;21.90;99.90;;;;;;4080684;29;20090;-65
2023/08/31 10:27:19;;;;;;;6.22;3.15;;;22.00;99.90;;;;;;4080610;29;20028;-62
2023/08/31 10:29:29;;;;;;;2.70;2.50;;;21.90;99.90;;;;;;4080538;29;20040;-68
2023/08/31 10:31:32;;;;;;;3.33;3.03;;;21.80;99.90;;;;;;4080461;29;20032;-65